Лысьва

Карта отелей и гостиниц, располагающихся рядом с аэропортом Лысьва :

Лысьва Пермский край 58° 6' 10.1412" N, 57° 41' 49.9812" E
Код аэродрома ИКАО
USPL
Код аэродрома RU
УСПЛ
Координаты
N58.10282° E057.69722°
Превышение над уровнем моря
210
Основная полоса
12/30
Курс магнитный
120/300
Длина основной ВПП
1073
Ширина основной ВПП
50
Покрытие основной ВПП
Нетвёрдое (грунт)
Освещение ВПП
Нет
Тип: 
Аэродром
Класс аэродрома: 
Принадлежность: 
ГА
Статус: 
Действующий
Сайт: 
E-mail аэродрома: 
ov141@ya.ru
Страна: 
Россия
Регион: 
Пермский край
Город: 
Дополнительная информация: 
Оператор: нет данных. АНППП зарегистрирован в Уральском МТУ ВТ Росавиации №УПЗ-597 от 12 мая 2014.

Найти трансфер

С помощью этой формы Вы можете найти трансфер из аэропорта Лысьва в город, аэропорт или вокзал:

Карта места

Javascript is required to view this map.

Погода в аэропортах:

Авиационная погода в Аулие-Ата

Регион: 
Погода METAR: 
UADD 281400Z VRB01MPS 0000 R31/0150D FZFG VV003 M07/M08 Q1024 TEMPO 0100 FZFG VV001 RMK QBB100 MT OBSC QFE709/0946
Время наблюдения
2021-11-28T14:00:00Z
Температура C
-7.0
Точка росы
-8.0
Направление ветра
0
Скорость ветра (узлы)
2
Метео видимость
0.0
Явления погоды
FZFG
Условия полета
LIFR
Аэропорт подробнее: 

Авиационная погода в Киркенесе

Регион: 
Погода METAR: 
ENKR 281320Z 17012KT 9999 VCFG FEW001 SCT016 M21/M23 Q1010 RMK WIND 731FT 17018KT
Время наблюдения
2021-11-28T13:20:00Z
Температура C
-21.0
Точка росы
-23.0
Направление ветра
170
Скорость ветра (узлы)
12
Метео видимость
6.21
Явления погоды
VCFG
Условия полета
VFR

Авиационная погода в Москва - Внуково

Погода METAR: 
UUWW 281300Z 22006MPS 9999 -RA BKN007 OVC022 02/01 Q1005 R24/290050 TEMPO BKN004
Время наблюдения
2021-11-28T13:00:00Z
Температура C
2.0
Точка росы
1.0
Направление ветра
220
Скорость ветра (узлы)
12
Метео видимость
6.21
Явления погоды
-RA
Условия полета
IFR
Аэропорт подробнее: 

Авиационная погода в Киеве

Регион: 
Погода METAR: 
UKKK 281300Z 12004MPS 090V150 0550 0450E R08/0800N FG VV001 05/05 Q1002 NOSIG
Время наблюдения
2021-11-28T13:00:00Z
Температура C
5.0
Точка росы
5.0
Направление ветра
120
Скорость ветра (узлы)
8
Метео видимость
0.34
Явления погоды
FG
Условия полета
LIFR
Аэропорт подробнее: